Time;durP1;ratioP1;P1;durP2;ratioP2;P2;SDS_P1;SDS_P2;PMS_P1;PMS_P2;Temp;Humidity;BMP_temperature;BMP_pressure;BME280_temperature;BME280_humidity;BME280_pressure;Samples;Min_cycle;Max_cycle;Signal;HPM_P1;HPM_P2
2020/12/30 00:00:16;;;;;;;40.23;20.03;;;3.70;99.90;;;;;;5069141;28;20420;-89
2020/12/30 00:02:42;;;;;;;38.37;20.67;;;3.70;99.90;;;;;;5051609;28;20756;-88
2020/12/30 00:05:11;;;;;;;39.80;19.63;;;3.70;99.90;;;;;;5074295;28;20455;-86
2020/12/30 00:07:37;;;;;;;36.23;19.87;;;3.70;99.90;;;;;;5051369;28;20237;-87
2020/12/30 00:10:08;;;;;;;38.23;19.37;;;3.70;99.90;;;;;;5073716;28;20419;-87
2020/12/30 00:12:34;;;;;;;41.87;20.20;;;3.70;99.90;;;;;;5074335;28;20535;-85
2020/12/30 00:15:00;;;;;;;37.37;18.07;;;3.70;99.90;;;;;;5073242;28;20470;-84
2020/12/30 00:17:26;;;;;;;37.13;19.67;;;3.70;99.90;;;;;;5044460;28;20443;-84
2020/12/30 00:19:52;;;;;;;32.93;17.10;;;3.70;99.90;;;;;;5058303;28;20255;-83
2020/12/30 00:22:18;;;;;;;34.80;18.60;;;3.70;99.90;;;;;;5047774;28;20432;-83
2020/12/30 00:24:44;;;;;;;44.03;20.70;;;3.80;99.90;;;;;;5063749;28;20422;-84
2020/12/30 00:27:10;;;;;;;34.43;18.50;;;3.70;99.90;;;;;;5052370;28;20430;-84
2020/12/30 00:29:36;;;;;;;35.63;19.50;;;3.70;99.90;;;;;;5069876;28;20483;-84
2020/12/30 00:32:03;;;;;;;37.97;20.10;;;3.70;99.90;;;;;;5071377;28;20431;-84
2020/12/30 00:34:28;;;;;;;35.80;18.90;;;3.70;99.90;;;;;;5048868;28;20430;-84
2020/12/30 00:36:54;;;;;;;38.93;19.80;;;3.70;99.90;;;;;;5069527;28;20928;-84
2020/12/30 00:39:20;;;;;;;42.53;20.40;;;3.70;99.90;;;;;;5055555;28;20224;-84
2020/12/30 00:41:52;;;;;;;37.87;18.73;;;3.70;99.90;;;;;;5071875;28;20427;-84
2020/12/30 00:44:18;;;;;;;34.73;19.17;;;3.70;99.90;;;;;;5068443;28;20544;-84
2020/12/30 00:46:43;;;;;;;38.03;20.07;;;3.70;99.90;;;;;;5069966;28;20514;-84
2020/12/30 00:49:09;;;;;;;40.80;21.83;;;3.70;99.90;;;;;;5050806;28;20190;-84
2020/12/30 00:51:36;;;;;;;41.10;21.00;;;3.70;99.90;;;;;;5071449;28;20264;-84
2020/12/30 00:54:03;;;;;;;48.83;21.20;;;3.70;99.90;;;;;;5067284;28;20463;-84
2020/12/30 00:56:29;;;;;;;42.67;19.60;;;3.70;99.90;;;;;;5070241;28;20426;-84
2020/12/30 00:58:54;;;;;;;43.60;21.37;;;3.70;99.90;;;;;;5069581;28;20465;-84
2020/12/30 01:01:20;;;;;;;43.03;22.53;;;3.80;99.90;;;;;;5073027;28;20177;-84
2020/12/30 01:03:46;;;;;;;40.43;19.47;;;3.80;99.90;;;;;;5050872;28;20174;-84
2020/12/30 01:06:12;;;;;;;44.03;20.20;;;3.80;99.90;;;;;;5067321;28;20190;-84
2020/12/30 01:08:38;;;;;;;39.70;20.83;;;3.80;99.90;;;;;;5069578;28;20507;-84
2020/12/30 01:11:04;;;;;;;37.37;21.33;;;3.80;99.90;;;;;;5047699;28;20435;-84
2020/12/30 01:13:30;;;;;;;42.93;20.53;;;3.80;99.90;;;;;;5067135;28;20544;-84
2020/12/30 01:15:55;;;;;;;39.50;18.50;;;3.80;99.90;;;;;;5071758;28;20452;-84
2020/12/30 01:18:21;;;;;;;37.03;20.33;;;3.90;99.90;;;;;;5068228;28;20201;-84
2020/12/30 01:20:47;;;;;;;43.87;22.00;;;3.90;99.90;;;;;;5068976;28;20184;-84
2020/12/30 01:23:12;;;;;;;36.80;20.47;;;3.80;99.90;;;;;;5065010;28;20202;-84
2020/12/30 01:25:38;;;;;;;38.73;20.20;;;3.80;99.90;;;;;;5071422;28;20172;-84
2020/12/30 01:28:04;;;;;;;34.27;18.27;;;3.90;99.90;;;;;;5069372;28;20250;-84
2020/12/30 01:30:30;;;;;;;49.03;24.37;;;3.80;99.90;;;;;;5072202;28;20458;-84
2020/12/30 01:32:56;;;;;;;43.03;22.13;;;3.80;99.90;;;;;;5066752;28;20183;-84
2020/12/30 01:35:21;;;;;;;38.20;19.13;;;3.80;99.90;;;;;;5068707;28;20177;-84
2020/12/30 01:37:47;;;;;;;41.50;20.37;;;3.80;99.90;;;;;;5051184;28;20286;-84
2020/12/30 01:40:13;;;;;;;36.17;20.00;;;3.80;99.90;;;;;;5065962;28;20255;-84
2020/12/30 01:42:47;;;;;;;40.63;20.33;;;3.80;99.90;;;;;;5065749;28;20185;-84
2020/12/30 01:45:13;;;;;;;43.33;21.37;;;3.80;99.90;;;;;;5071698;28;20616;-84
2020/12/30 01:47:40;;;;;;;38.27;19.43;;;3.80;99.90;;;;;;5067617;28;20436;-84
2020/12/30 01:50:07;;;;;;;35.93;20.27;;;3.80;99.90;;;;;;5064834;28;20443;-83
2020/12/30 01:52:33;;;;;;;40.07;20.20;;;3.80;99.90;;;;;;5072020;28;20515;-84
2020/12/30 01:55:00;;;;;;;41.13;21.90;;;3.80;99.90;;;;;;5047911;28;20922;-84
2020/12/30 01:57:28;;;;;;;35.47;20.13;;;3.80;99.90;;;;;;5067247;28;20492;-84
2020/12/30 01:59:54;;;;;;;36.00;18.50;;;3.90;99.90;;;;;;5046344;28;20951;-84
2020/12/30 02:02:24;;;;;;;32.57;20.40;;;3.90;99.90;;;;;;5069692;28;20503;-84
2020/12/30 02:04:52;;;;;;;34.10;19.53;;;3.80;99.90;;;;;;5069045;28;20423;-84
2020/12/30 02:07:18;;;;;;;36.13;17.87;;;3.90;99.90;;;;;;5056657;28;20487;-84
2020/12/30 02:09:45;;;;;;;44.97;20.60;;;3.90;99.90;;;;;;5046364;28;20423;-84
2020/12/30 02:12:12;;;;;;;38.07;18.63;;;3.80;99.90;;;;;;5071942;28;20426;-84
2020/12/30 02:14:39;;;;;;;31.00;18.27;;;3.80;99.90;;;;;;5067457;28;20427;-84
2020/12/30 02:17:04;;;;;;;30.93;17.07;;;3.80;99.90;;;;;;5066176;28;20437;-84
2020/12/30 02:19:30;;;;;;;34.00;19.43;;;3.80;99.90;;;;;;5069990;28;20434;-84
2020/12/30 02:22:01;;;;;;;36.30;18.97;;;3.80;99.90;;;;;;5044941;28;20228;-84
2020/12/30 02:24:34;;;;;;;34.93;20.83;;;3.90;99.90;;;;;;5066453;28;20482;-84
2020/12/30 02:27:02;;;;;;;37.40;21.33;;;3.80;99.90;;;;;;5066130;28;20424;-84
2020/12/30 02:29:29;;;;;;;41.70;19.93;;;3.90;99.90;;;;;;5067453;28;20833;-84
2020/12/30 02:31:54;;;;;;;35.53;20.13;;;3.90;99.90;;;;;;5042955;28;20519;-84
2020/12/30 02:34:21;;;;;;;35.43;19.40;;;3.80;99.90;;;;;;5072612;28;20518;-84
2020/12/30 02:36:48;;;;;;;35.50;19.30;;;3.80;99.90;;;;;;5067110;28;20428;-84
2020/12/30 02:39:14;;;;;;;36.27;20.50;;;3.80;99.90;;;;;;5068088;28;20458;-84
2020/12/30 02:41:39;;;;;;;36.10;19.13;;;3.80;99.90;;;;;;5068408;28;20494;-84
2020/12/30 02:44:06;;;;;;;35.43;19.40;;;3.80;99.90;;;;;;5045134;28;20573;-84
2020/12/30 02:46:33;;;;;;;31.63;17.43;;;3.80;99.90;;;;;;5062404;28;20173;-84
2020/12/30 02:48:59;;;;;;;31.27;20.50;;;3.80;99.90;;;;;;5063940;28;20433;-84
2020/12/30 02:51:25;;;;;;;36.53;19.80;;;3.80;99.90;;;;;;5068732;28;20779;-84
2020/12/30 02:53:51;;;;;;;35.20;19.67;;;3.80;99.90;;;;;;5046805;28;20234;-84
2020/12/30 02:56:20;;;;;;;35.90;19.50;;;3.80;99.90;;;;;;5067095;28;20433;-84
2020/12/30 02:58:49;;;;;;;37.50;19.83;;;3.80;99.90;;;;;;5063803;28;20209;-84
2020/12/30 03:01:16;;;;;;;35.60;18.70;;;3.80;99.90;;;;;;5066311;28;20440;-84
2020/12/30 03:03:42;;;;;;;40.47;21.77;;;3.90;99.90;;;;;;5068610;28;20865;-84
2020/12/30 03:06:09;;;;;;;36.03;19.63;;;3.80;99.90;;;;;;5064621;28;20432;-84
2020/12/30 03:08:35;;;;;;;39.57;20.80;;;3.80;99.90;;;;;;5068702;28;20435;-84
2020/12/30 03:11:02;;;;;;;29.13;18.20;;;3.80;99.90;;;;;;5051977;28;20445;-84
2020/12/30 03:13:28;;;;;;;35.23;19.77;;;3.80;99.90;;;;;;5068650;28;20459;-84
2020/12/30 03:15:53;;;;;;;35.80;21.77;;;3.80;99.90;;;;;;5045346;28;20458;-84
2020/12/30 03:18:20;;;;;;;29.30;16.70;;;3.80;99.90;;;;;;5045718;28;20786;-84
2020/12/30 03:20:46;;;;;;;34.67;21.10;;;3.80;99.90;;;;;;5070256;28;20201;-84
2020/12/30 03:23:12;;;;;;;41.50;19.07;;;3.80;99.90;;;;;;5068914;28;20470;-84
2020/12/30 03:25:38;;;;;;;36.83;20.37;;;3.70;99.90;;;;;;5054873;28;20454;-84
2020/12/30 03:28:04;;;;;;;32.00;18.73;;;3.80;99.90;;;;;;5068573;28;20265;-84
2020/12/30 03:30:30;;;;;;;39.30;19.37;;;3.70;99.90;;;;;;5065789;28;20442;-84
2020/12/30 03:32:56;;;;;;;33.13;19.67;;;3.70;99.90;;;;;;5069238;28;20436;-84
2020/12/30 03:35:24;;;;;;;34.37;20.53;;;3.70;99.90;;;;;;5074317;28;20479;-84
2020/12/30 03:37:54;;;;;;;36.03;18.80;;;3.70;99.90;;;;;;5073410;28;20259;-84
2020/12/30 03:40:20;;;;;;;36.10;19.90;;;3.70;99.90;;;;;;5068480;28;20440;-84
2020/12/30 03:42:47;;;;;;;37.80;19.40;;;3.70;99.90;;;;;;5056595;28;20453;-84
2020/12/30 03:45:13;;;;;;;35.33;21.07;;;3.70;99.90;;;;;;5068615;28;20457;-84
2020/12/30 03:47:39;;;;;;;39.33;19.80;;;3.70;99.90;;;;;;5055185;28;20511;-84
2020/12/30 03:50:05;;;;;;;35.30;20.40;;;3.60;99.90;;;;;;5072282;28;20440;-84
2020/12/30 03:52:30;;;;;;;36.40;18.20;;;3.70;99.90;;;;;;5070265;28;20172;-84
2020/12/30 03:54:58;;;;;;;37.10;20.07;;;3.70;99.90;;;;;;5075001;28;20421;-84
2020/12/30 03:57:24;;;;;;;42.60;20.70;;;3.70;99.90;;;;;;5072404;28;20195;-84
2020/12/30 03:59:49;;;;;;;35.87;19.30;;;3.70;99.90;;;;;;5045056;28;20434;-84
2020/12/30 04:02:16;;;;;;;40.97;19.67;;;3.70;99.90;;;;;;5071508;28;20178;-84
2020/12/30 04:04:41;;;;;;;40.57;19.03;;;3.70;99.90;;;;;;5053888;28;20169;-84
2020/12/30 04:07:07;;;;;;;39.47;19.40;;;3.80;99.90;;;;;;5072968;28;20434;-84
2020/12/30 04:09:33;;;;;;;32.13;18.30;;;3.80;99.90;;;;;;5073229;28;20173;-84
2020/12/30 04:11:59;;;;;;;36.37;19.30;;;3.80;99.90;;;;;;5070865;28;20182;-84
2020/12/30 04:14:24;;;;;;;38.10;19.83;;;3.80;99.90;;;;;;5072092;28;20171;-84
2020/12/30 04:16:50;;;;;;;31.03;16.90;;;3.80;99.90;;;;;;5074286;28;20236;-84
2020/12/30 04:19:16;;;;;;;32.83;18.97;;;3.80;99.90;;;;;;5051362;28;20197;-84
2020/12/30 04:21:41;;;;;;;37.80;19.97;;;3.70;99.90;;;;;;5051689;28;20641;-84
2020/12/30 04:24:07;;;;;;;29.63;16.40;;;3.80;99.90;;;;;;5072875;28;20170;-84
2020/12/30 04:26:33;;;;;;;34.30;19.43;;;3.80;99.90;;;;;;5069425;28;20170;-84
2020/12/30 04:28:58;;;;;;;32.80;18.23;;;3.70;99.90;;;;;;5049462;28;20263;-84
2020/12/30 04:31:24;;;;;;;35.87;18.37;;;3.70;99.90;;;;;;5071577;28;20172;-84
2020/12/30 04:33:50;;;;;;;30.40;17.20;;;3.70;99.90;;;;;;5072287;28;20266;-84
2020/12/30 04:36:16;;;;;;;36.37;18.60;;;3.70;99.90;;;;;;5072284;28;20243;-84
2020/12/30 04:38:41;;;;;;;35.70;17.00;;;3.80;99.90;;;;;;5063087;28;20512;-84
2020/12/30 04:41:13;;;;;;;26.90;17.03;;;3.70;99.90;;;;;;5066648;28;20256;-84
2020/12/30 04:43:41;;;;;;;32.87;16.90;;;3.70;99.90;;;;;;5062549;28;20177;-84
2020/12/30 04:46:10;;;;;;;30.60;17.10;;;3.80;99.90;;;;;;5069864;28;20425;-84
2020/12/30 04:48:38;;;;;;;34.17;17.83;;;3.80;99.90;;;;;;5077000;28;20522;-84
2020/12/30 04:51:03;;;;;;;30.50;17.20;;;3.80;99.90;;;;;;5084114;28;20464;-84
2020/12/30 04:53:30;;;;;;;31.77;17.37;;;3.80;99.90;;;;;;5071500;28;20435;-84
2020/12/30 04:56:00;;;;;;;33.00;17.80;;;3.80;99.90;;;;;;5066029;28;20174;-84
2020/12/30 04:58:32;;;;;;;29.37;15.10;;;3.70;99.90;;;;;;5067241;28;20456;-84
2020/12/30 05:00:59;;;;;;;36.50;17.90;;;3.70;99.90;;;;;;5066787;28;20432;-84
2020/12/30 05:03:30;;;;;;;27.70;16.97;;;3.80;99.90;;;;;;5065087;28;20499;-84
2020/12/30 05:06:05;;;;;;;26.30;16.17;;;3.70;99.90;;;;;;5069414;28;20431;-84
2020/12/30 05:08:36;;;;;;;29.67;16.90;;;3.70;99.90;;;;;;5072122;28;20438;-84
2020/12/30 05:11:03;;;;;;;33.53;19.57;;;3.70;99.90;;;;;;5067505;28;20436;-84
2020/12/30 05:13:29;;;;;;;23.80;16.50;;;3.80;99.90;;;;;;5070627;28;20431;-84
2020/12/30 05:15:57;;;;;;;34.60;19.80;;;3.80;99.90;;;;;;5049472;28;20508;-84
2020/12/30 05:18:23;;;;;;;27.30;15.33;;;3.70;99.90;;;;;;5050298;28;20255;-84
2020/12/30 05:20:49;;;;;;;29.33;18.17;;;3.80;99.90;;;;;;5072629;28;20429;-84
2020/12/30 05:23:15;;;;;;;37.20;19.30;;;3.70;99.90;;;;;;5065041;28;20182;-84
2020/12/30 05:25:42;;;;;;;29.63;15.33;;;3.70;99.90;;;;;;5074126;28;20172;-84
2020/12/30 05:28:10;;;;;;;28.13;16.73;;;3.70;99.90;;;;;;5068603;28;20432;-84
2020/12/30 05:30:37;;;;;;;38.27;16.80;;;3.80;99.90;;;;;;5073716;28;20433;-84
2020/12/30 05:33:04;;;;;;;28.93;14.83;;;3.80;99.90;;;;;;5066347;28;21032;-84
2020/12/30 05:35:31;;;;;;;30.70;17.43;;;3.70;99.90;;;;;;5065019;28;20419;-84
2020/12/30 05:37:58;;;;;;;30.23;17.07;;;3.70;99.90;;;;;;5066668;28;21017;-84
2020/12/30 05:40:33;;;;;;;31.93;16.60;;;3.80;99.90;;;;;;5067753;28;20483;-84
2020/12/30 05:43:16;;;;;;;32.97;17.53;;;3.70;99.90;;;;;;5055039;28;20420;-84
2020/12/30 05:45:50;;;;;;;25.00;15.53;;;3.70;99.90;;;;;;5053104;28;20453;-84
2020/12/30 05:48:17;;;;;;;26.87;15.40;;;3.70;99.90;;;;;;5070237;28;20428;-84
2020/12/30 05:50:52;;;;;;;27.60;16.80;;;3.80;99.90;;;;;;5064963;28;20441;-84
2020/12/30 05:53:19;;;;;;;36.53;16.13;;;3.70;99.90;;;;;;5050882;28;20440;-84
2020/12/30 05:55:48;;;;;;;25.47;14.67;;;3.80;99.90;;;;;;5071652;28;20550;-84
2020/12/30 05:58:15;;;;;;;33.07;17.70;;;3.70;99.90;;;;;;5064818;28;20452;-84
2020/12/30 06:00:42;;;;;;;27.37;15.73;;;3.70;99.90;;;;;;5070737;28;20759;-84
2020/12/30 06:03:08;;;;;;;27.67;17.60;;;3.70;99.90;;;;;;5054675;28;20557;-84
2020/12/30 06:05:34;;;;;;;22.83;14.43;;;3.80;99.90;;;;;;5073132;28;20507;-84
2020/12/30 06:08:00;;;;;;;26.90;15.07;;;3.70;99.90;;;;;;5071047;28;20428;-84
2020/12/30 06:10:27;;;;;;;26.07;14.90;;;3.70;99.90;;;;;;5065751;28;20524;-84
2020/12/30 06:12:55;;;;;;;28.77;15.77;;;3.70;99.90;;;;;;5064104;28;20864;-84
2020/12/30 06:15:26;;;;;;;27.67;16.83;;;3.70;99.90;;;;;;5069792;28;20479;-84
2020/12/30 06:18:10;;;;;;;24.97;14.70;;;3.70;99.90;;;;;;5069941;28;20531;-84
2020/12/30 06:20:40;;;;;;;29.03;16.53;;;3.70;99.90;;;;;;5068092;28;20432;-84
2020/12/30 06:23:14;;;;;;;28.60;16.20;;;3.60;99.90;;;;;;5051730;28;20478;-84
2020/12/30 06:25:42;;;;;;;24.90;16.13;;;3.70;99.90;;;;;;5068893;28;20869;-84
2020/12/30 06:28:20;;;;;;;29.17;16.20;;;3.70;99.90;;;;;;5049919;28;20459;-84
2020/12/30 06:30:48;;;;;;;28.83;17.23;;;3.60;99.90;;;;;;5066448;28;20434;-84
2020/12/30 06:33:15;;;;;;;28.50;17.27;;;3.60;99.90;;;;;;5063209;28;20435;-84
2020/12/30 06:35:42;;;;;;;25.37;15.70;;;3.60;99.90;;;;;;5069236;28;20437;-84
2020/12/30 06:38:25;;;;;;;26.00;14.63;;;3.60;99.90;;;;;;5053291;28;20454;-84
2020/12/30 06:41:02;;;;;;;28.93;16.47;;;3.50;99.90;;;;;;5062874;28;20428;-84
2020/12/30 06:43:37;;;;;;;28.00;16.17;;;3.60;99.90;;;;;;5065713;28;20419;-84
2020/12/30 06:46:03;;;;;;;29.43;15.20;;;3.50;99.90;;;;;;5047618;28;20442;-84
2020/12/30 06:48:29;;;;;;;26.30;16.17;;;3.50;99.90;;;;;;5061863;28;20436;-84
2020/12/30 06:51:14;;;;;;;28.97;13.50;;;3.50;99.90;;;;;;5047188;28;20514;-84
2020/12/30 06:53:49;;;;;;;28.53;15.30;;;3.50;99.90;;;;;;5068027;28;20495;-84
2020/12/30 06:56:15;;;;;;;24.50;14.87;;;3.50;99.90;;;;;;5067516;28;20427;-84
2020/12/30 06:58:44;;;;;;;26.40;13.77;;;3.50;99.90;;;;;;5059177;28;20495;-84
2020/12/30 07:01:20;;;;;;;30.03;15.53;;;3.50;99.90;;;;;;5052212;28;20435;-84
2020/12/30 07:03:50;;;;;;;23.53;15.07;;;3.50;99.90;;;;;;5049797;28;20440;-84
2020/12/30 07:06:27;;;;;;;27.43;15.70;;;3.50;99.90;;;;;;5053691;28;20532;-84
2020/12/30 07:08:55;;;;;;;21.70;13.10;;;3.50;99.90;;;;;;5070419;28;20455;-84
2020/12/30 07:11:44;;;;;;;25.23;14.17;;;3.50;99.90;;;;;;5055401;28;20431;-84
2020/12/30 07:14:15;;;;;;;24.10;13.80;;;3.50;99.90;;;;;;5054614;28;20496;-84
2020/12/30 07:16:45;;;;;;;26.53;14.27;;;3.50;99.90;;;;;;5067656;28;20448;-84
2020/12/30 07:19:13;;;;;;;24.40;13.60;;;3.50;99.90;;;;;;5070192;28;20452;-84
2020/12/30 07:22:12;;;;;;;28.20;13.80;;;3.50;99.90;;;;;;5066829;28;20412;-84
2020/12/30 07:24:53;;;;;;;26.00;13.77;;;3.50;99.90;;;;;;5028314;28;20821;-84
2020/12/30 07:27:21;;;;;;;26.40;15.23;;;3.50;99.90;;;;;;5057009;28;20907;-84
2020/12/30 07:29:48;;;;;;;25.67;14.27;;;3.50;99.90;;;;;;5066262;28;20430;-84
2020/12/30 07:32:15;;;;;;;24.13;14.40;;;3.50;99.90;;;;;;5048666;28;20435;-84
2020/12/30 07:34:45;;;;;;;28.43;14.03;;;3.50;99.90;;;;;;5054211;28;20430;-84
2020/12/30 07:37:12;;;;;;;27.77;14.47;;;3.50;99.90;;;;;;5054528;28;20466;-84
2020/12/30 07:39:43;;;;;;;22.00;13.77;;;3.50;99.90;;;;;;5072813;28;20900;-84
2020/12/30 07:42:13;;;;;;;24.97;14.47;;;3.40;99.90;;;;;;5072581;28;20418;-84
2020/12/30 07:44:47;;;;;;;22.67;13.80;;;3.50;99.90;;;;;;5071989;28;20440;-84
2020/12/30 07:47:13;;;;;;;35.63;15.80;;;3.50;99.90;;;;;;5071282;28;20431;-84
2020/12/30 07:49:40;;;;;;;25.50;15.00;;;3.40;99.90;;;;;;5070852;28;20427;-84
2020/12/30 07:52:07;;;;;;;31.27;15.57;;;3.40;99.90;;;;;;5073927;28;20565;-84
2020/12/30 07:54:33;;;;;;;27.93;14.80;;;3.40;99.90;;;;;;5075568;28;20559;-84
2020/12/30 07:57:11;;;;;;;26.77;14.90;;;3.30;99.90;;;;;;5067174;28;20977;-84
2020/12/30 07:59:39;;;;;;;27.10;16.47;;;3.30;99.90;;;;;;5068140;28;20438;-84
2020/12/30 08:02:06;;;;;;;29.67;16.20;;;3.30;99.90;;;;;;5051727;28;20920;-84
2020/12/30 08:04:34;;;;;;;28.67;16.20;;;3.30;99.90;;;;;;5067427;28;20503;-84
2020/12/30 08:07:04;;;;;;;31.37;15.67;;;3.30;99.90;;;;;;5068803;28;20434;-84
2020/12/30 08:09:32;;;;;;;28.90;15.20;;;3.30;99.90;;;;;;5070060;28;20499;-84
2020/12/30 08:12:00;;;;;;;29.07;14.30;;;3.30;99.90;;;;;;5047885;28;20435;-84
2020/12/30 08:14:28;;;;;;;38.00;16.57;;;3.30;99.90;;;;;;5070747;28;20436;-84
2020/12/30 08:17:04;;;;;;;28.43;16.83;;;3.20;99.90;;;;;;5066330;28;20525;-84
2020/12/30 08:19:47;;;;;;;29.13;15.97;;;3.20;99.90;;;;;;5065535;28;20458;-84
2020/12/30 08:22:22;;;;;;;34.20;15.10;;;3.20;99.90;;;;;;5052710;28;20771;-84
2020/12/30 08:24:55;;;;;;;30.70;15.37;;;3.30;99.90;;;;;;5048234;28;20430;-84
2020/12/30 08:27:28;;;;;;;29.23;14.83;;;3.20;99.90;;;;;;5065738;28;20514;-84
2020/12/30 08:29:56;;;;;;;29.77;13.10;;;3.30;99.90;;;;;;5066062;28;20597;-84
2020/12/30 08:32:33;;;;;;;25.67;14.03;;;3.30;99.90;;;;;;5070404;28;20430;-84
2020/12/30 08:35:08;;;;;;;26.17;14.60;;;3.30;99.90;;;;;;5053027;28;20435;-84
2020/12/30 08:37:44;;;;;;;29.20;15.40;;;3.30;99.90;;;;;;5052725;28;20455;-84
2020/12/30 08:40:16;;;;;;;25.53;14.10;;;3.30;99.90;;;;;;5070957;28;20428;-84
2020/12/30 08:42:54;;;;;;;29.23;14.33;;;3.20;99.90;;;;;;5074506;28;20417;-84
2020/12/30 08:45:20;;;;;;;32.63;15.33;;;3.20;99.90;;;;;;5068225;28;20823;-84
2020/12/30 08:47:52;;;;;;;31.13;16.83;;;3.20;99.90;;;;;;5057188;28;20461;-84
2020/12/30 08:50:21;;;;;;;29.60;15.40;;;3.20;99.90;;;;;;5071312;28;20179;-84
2020/12/30 08:52:47;;;;;;;30.50;14.83;;;3.20;99.90;;;;;;5053648;28;23145;-84
2020/12/30 08:55:14;;;;;;;29.13;16.17;;;3.20;99.90;;;;;;5045827;28;20465;-84
2020/12/30 08:57:47;;;;;;;30.30;15.90;;;3.20;99.90;;;;;;5064260;28;20203;-84
2020/12/30 09:00:23;;;;;;;29.67;15.87;;;3.10;99.90;;;;;;5070187;28;20458;-84
2020/12/30 09:02:51;;;;;;;24.43;13.20;;;3.00;99.90;;;;;;5071534;28;20531;-84
2020/12/30 09:05:27;;;;;;;29.80;16.10;;;3.10;99.90;;;;;;5054875;28;20959;-85
2020/12/30 09:07:53;;;;;;;27.07;14.93;;;3.10;99.90;;;;;;5070820;28;20434;-84
2020/12/30 09:10:19;;;;;;;27.73;16.43;;;3.10;99.90;;;;;;5065537;28;20449;-84
2020/12/30 09:12:45;;;;;;;27.17;15.00;;;3.10;99.90;;;;;;5068309;28;20861;-84
2020/12/30 09:15:15;;;;;;;30.17;15.67;;;3.10;99.90;;;;;;5049999;28;20451;-84
2020/12/30 09:17:42;;;;;;;26.70;15.20;;;3.10;99.90;;;;;;5069709;28;20636;-84
2020/12/30 09:20:15;;;;;;;28.53;16.43;;;3.20;99.90;;;;;;5071328;28;20422;-84
2020/12/30 09:22:42;;;;;;;32.63;16.10;;;3.20;99.90;;;;;;5062593;28;20768;-84
2020/12/30 09:25:25;;;;;;;33.10;15.90;;;3.20;99.90;;;;;;5064764;28;20426;-84
2020/12/30 09:27:52;;;;;;;29.50;15.07;;;3.20;99.90;;;;;;5049425;28;20438;-84
2020/12/30 09:30:20;;;;;;;23.93;14.63;;;3.20;99.90;;;;;;5066996;28;20430;-84
2020/12/30 09:32:47;;;;;;;37.00;15.67;;;3.30;99.90;;;;;;5064330;28;20431;-84
2020/12/30 09:35:16;;;;;;;33.43;15.63;;;3.30;99.90;;;;;;5066012;28;20431;-84
2020/12/30 09:37:50;;;;;;;23.60;14.50;;;3.30;99.90;;;;;;5051975;28;20458;-84
2020/12/30 09:40:17;;;;;;;28.00;15.07;;;3.30;99.90;;;;;;5064611;28;20476;-84
2020/12/30 09:42:44;;;;;;;25.20;14.10;;;3.20;99.90;;;;;;5051076;28;20421;-84
2020/12/30 09:45:16;;;;;;;26.03;15.30;;;3.30;99.90;;;;;;5059210;28;20529;-84
2020/12/30 09:47:42;;;;;;;26.53;14.67;;;3.40;99.90;;;;;;5065002;28;20908;-84
2020/12/30 09:50:13;;;;;;;33.73;14.37;;;3.40;99.90;;;;;;5066279;28;20434;-85
2020/12/30 09:52:41;;;;;;;25.73;13.83;;;3.40;99.90;;;;;;5051091;28;21193;-84
2020/12/30 09:55:09;;;;;;;23.40;13.50;;;3.30;99.90;;;;;;5065297;28;20442;-84
2020/12/30 09:57:36;;;;;;;30.30;17.70;;;3.30;99.90;;;;;;5051143;28;20461;-85
2020/12/30 10:00:09;;;;;;;27.47;14.47;;;3.40;99.90;;;;;;5066202;28;20427;-84
2020/12/30 10:02:35;;;;;;;22.33;13.87;;;3.40;99.90;;;;;;5061468;28;20413;-84
2020/12/30 10:05:01;;;;;;;33.13;14.73;;;3.50;99.90;;;;;;5064600;28;20576;-84
2020/12/30 10:07:27;;;;;;;23.53;13.00;;;3.50;99.90;;;;;;5065449;28;20189;-84
2020/12/30 10:09:53;;;;;;;27.67;14.93;;;3.50;99.90;;;;;;5061701;28;20427;-84
2020/12/30 10:12:23;;;;;;;25.37;15.23;;;3.60;99.90;;;;;;5045658;28;20272;-85
2020/12/30 10:14:49;;;;;;;22.53;13.23;;;3.60;99.90;;;;;;5046218;28;20173;-84
2020/12/30 10:17:15;;;;;;;22.73;13.60;;;3.70;99.90;;;;;;5050333;28;20515;-84
2020/12/30 10:19:41;;;;;;;25.87;14.40;;;3.70;99.90;;;;;;5049686;28;20879;-84
2020/12/30 10:22:10;;;;;;;22.17;14.10;;;3.60;99.90;;;;;;5044391;28;20670;-84
2020/12/30 10:24:37;;;;;;;24.53;14.73;;;3.60;99.90;;;;;;5052408;28;20455;-84
2020/12/30 10:27:04;;;;;;;30.33;14.63;;;3.60;99.90;;;;;;5049712;28;20425;-84
2020/12/30 10:29:30;;;;;;;27.80;14.77;;;3.70;99.90;;;;;;5070460;28;20424;-84
2020/12/30 10:31:58;;;;;;;28.40;13.60;;;3.70;99.90;;;;;;5051898;28;20431;-84
2020/12/30 10:34:24;;;;;;;21.93;12.37;;;3.60;99.90;;;;;;5063393;28;20437;-84
2020/12/30 10:36:49;;;;;;;22.83;13.57;;;3.60;99.90;;;;;;5062500;28;20441;-84
2020/12/30 10:39:15;;;;;;;28.20;14.70;;;3.70;99.90;;;;;;5043079;28;20445;-84
2020/12/30 10:41:41;;;;;;;31.33;15.50;;;3.60;99.90;;;;;;5066402;28;20439;-84
2020/12/30 10:44:07;;;;;;;27.47;14.70;;;3.60;99.90;;;;;;5065122;28;20195;-84
2020/12/30 10:46:33;;;;;;;23.37;13.57;;;3.60;99.90;;;;;;5039699;28;20844;-84
2020/12/30 10:48:58;;;;;;;26.43;13.10;;;3.50;99.90;;;;;;5059908;28;20232;-84
2020/12/30 10:51:24;;;;;;;28.23;14.53;;;3.60;99.90;;;;;;5067593;28;20178;-84
2020/12/30 10:53:50;;;;;;;29.80;15.70;;;3.60;99.90;;;;;;5067710;28;20176;-84
2020/12/30 10:56:16;;;;;;;26.10;14.10;;;3.60;99.90;;;;;;5047439;28;20535;-84
2020/12/30 10:58:42;;;;;;;22.63;14.77;;;3.70;99.90;;;;;;5065225;28;20269;-84
2020/12/30 11:01:09;;;;;;;24.50;13.17;;;3.70;99.90;;;;;;5042729;28;20455;-85
2020/12/30 11:03:35;;;;;;;25.77;14.57;;;3.70;99.90;;;;;;5070106;28;20821;-84
2020/12/30 11:06:01;;;;;;;27.33;14.30;;;3.70;99.90;;;;;;5065832;28;20420;-85
2020/12/30 11:08:28;;;;;;;27.40;13.20;;;3.60;99.90;;;;;;5077192;28;20447;-86
2020/12/30 11:10:57;;;;;;;25.13;14.53;;;3.60;99.90;;;;;;5067619;28;20521;-84
2020/12/30 11:13:23;;;;;;;24.20;14.37;;;3.60;99.90;;;;;;5065983;28;20460;-84
2020/12/30 11:15:49;;;;;;;25.43;14.80;;;3.60;99.90;;;;;;5062933;28;20457;-85
2020/12/30 11:18:15;;;;;;;26.23;14.87;;;3.60;99.90;;;;;;5063501;28;20757;-87
2020/12/30 11:20:40;;;;;;;26.20;14.07;;;3.50;99.90;;;;;;5048140;28;20632;-85
2020/12/30 11:23:06;;;;;;;26.37;14.27;;;3.50;99.90;;;;;;5063446;28;20177;-84
2020/12/30 11:25:32;;;;;;;25.67;15.47;;;3.50;99.90;;;;;;5053266;28;20169;-84
2020/12/30 11:27:58;;;;;;;28.73;15.63;;;3.50;99.90;;;;;;5071038;28;20427;-88
2020/12/30 11:30:24;;;;;;;33.93;17.93;;;3.50;99.90;;;;;;5050879;28;20245;-88
2020/12/30 11:32:50;;;;;;;30.00;16.00;;;3.50;99.90;;;;;;5055373;28;20191;-88
2020/12/30 11:35:16;;;;;;;30.87;16.83;;;3.40;99.90;;;;;;5048487;28;20199;-88
2020/12/30 11:37:41;;;;;;;31.30;16.37;;;3.40;99.90;;;;;;5045030;28;20458;-88
2020/12/30 11:40:07;;;;;;;31.00;17.60;;;3.50;99.90;;;;;;5069232;28;20173;-88
2020/12/30 11:42:33;;;;;;;35.73;17.83;;;3.50;99.90;;;;;;5071952;28;20244;-88
2020/12/30 11:44:59;;;;;;;38.43;18.37;;;3.50;99.90;;;;;;5067110;28;20479;-88
2020/12/30 11:47:26;;;;;;;37.03;21.70;;;3.50;99.90;;;;;;5051129;28;20177;-88
2020/12/30 11:49:52;;;;;;;33.70;18.97;;;3.50;99.90;;;;;;5047474;28;20202;-88
2020/12/30 11:52:18;;;;;;;48.23;20.70;;;3.50;99.90;;;;;;5074902;28;20912;-88
2020/12/30 11:54:44;;;;;;;34.07;19.67;;;3.60;99.90;;;;;;5072316;28;20478;-89
2020/12/30 11:57:10;;;;;;;36.00;18.10;;;3.60;99.90;;;;;;5093100;28;20433;-88
2020/12/30 11:59:36;;;;;;;34.70;18.77;;;3.60;99.90;;;;;;5072828;28;20464;-89
2020/12/30 12:02:02;;;;;;;35.17;19.50;;;3.60;99.90;;;;;;5082307;28;20527;-89
2020/12/30 12:04:27;;;;;;;34.70;19.00;;;3.60;99.90;;;;;;5068625;28;20205;-89
2020/12/30 12:07:00;;;;;;;33.13;17.87;;;3.60;99.90;;;;;;5073861;28;20688;-89
2020/12/30 12:09:26;;;;;;;42.60;19.17;;;3.60;99.90;;;;;;5048862;28;20184;-88
2020/12/30 12:11:53;;;;;;;38.73;19.63;;;3.70;99.90;;;;;;5052628;28;20435;-88
2020/12/30 12:14:19;;;;;;;32.77;17.97;;;3.70;99.90;;;;;;5071563;28;20437;-88
2020/12/30 12:16:55;;;;;;;34.53;17.60;;;3.60;99.90;;;;;;5049425;28;20821;-87
2020/12/30 12:19:21;;;;;;;34.07;18.00;;;3.60;99.90;;;;;;5066567;28;20206;-87
2020/12/30 12:21:49;;;;;;;37.30;18.27;;;3.60;99.90;;;;;;5076089;28;20458;-82
2020/12/30 12:24:15;;;;;;;39.23;18.63;;;3.60;99.90;;;;;;5050317;28;20448;-86
2020/12/30 12:26:42;;;;;;;30.40;18.20;;;3.70;99.90;;;;;;5049501;28;20439;-86
2020/12/30 12:29:41;;;;;;;32.50;17.83;;;3.70;99.90;;;;;;5073042;28;20436;-86
2020/12/30 12:32:09;;;;;;;29.67;18.33;;;3.70;99.90;;;;;;5022884;28;20442;-86
2020/12/30 12:34:37;;;;;;;31.83;18.60;;;3.70;99.90;;;;;;5070831;28;20428;-86
2020/12/30 12:37:05;;;;;;;36.00;18.10;;;3.70;99.90;;;;;;5054759;28;20836;-86
2020/12/30 12:39:32;;;;;;;36.50;17.37;;;3.70;99.90;;;;;;5071938;28;20793;-86